sensor_id;sensor_type;location;lat;lon;timestamp;P1;durP1;ratioP1;P2;durP2;ratioP2
32535;SDS011;18974;50.838;4.636;2023-07-29T00:01:50;7.85;;;2.85;;
32535;SDS011;18974;50.838;4.636;2023-07-29T00:04:18;5.57;;;2.90;;
32535;SDS011;18974;50.838;4.636;2023-07-29T00:06:45;2.90;;;2.70;;
32535;SDS011;18974;50.838;4.636;2023-07-29T00:09:11;3.58;;;2.50;;
32535;SDS011;18974;50.838;4.636;2023-07-29T00:11:37;4.05;;;2.20;;
32535;SDS011;18974;50.838;4.636;2023-07-29T00:14:03;3.25;;;2.40;;
32535;SDS011;18974;50.838;4.636;2023-07-29T00:16:28;3.45;;;2.30;;
32535;SDS011;18974;50.838;4.636;2023-07-29T00:18:54;6.78;;;2.72;;
32535;SDS011;18974;50.838;4.636;2023-07-29T00:21:20;3.70;;;2.20;;
32535;SDS011;18974;50.838;4.636;2023-07-29T00:23:45;6.53;;;2.45;;
32535;SDS011;18974;50.838;4.636;2023-07-29T00:26:11;2.42;;;2.22;;
32535;SDS011;18974;50.838;4.636;2023-07-29T00:28:36;4.55;;;2.25;;
32535;SDS011;18974;50.838;4.636;2023-07-29T00:31:02;3.05;;;2.35;;
32535;SDS011;18974;50.838;4.636;2023-07-29T00:33:28;6.28;;;2.42;;
32535;SDS011;18974;50.838;4.636;2023-07-29T00:35:53;2.33;;;2.13;;
32535;SDS011;18974;50.838;4.636;2023-07-29T00:38:19;6.32;;;2.03;;
32535;SDS011;18974;50.838;4.636;2023-07-29T00:40:45;4.18;;;1.70;;
32535;SDS011;18974;50.838;4.636;2023-07-29T00:43:10;4.60;;;1.55;;
32535;SDS011;18974;50.838;4.636;2023-07-29T00:45:36;1.83;;;1.60;;
32535;SDS011;18974;50.838;4.636;2023-07-29T00:48:03;2.53;;;1.45;;
32535;SDS011;18974;50.838;4.636;2023-07-29T00:50:30;8.30;;;1.60;;
32535;SDS011;18974;50.838;4.636;2023-07-29T00:52:57;10.50;;;1.58;;
32535;SDS011;18974;50.838;4.636;2023-07-29T00:55:23;4.28;;;1.63;;
32535;SDS011;18974;50.838;4.636;2023-07-29T00:57:50;3.08;;;1.42;;
32535;SDS011;18974;50.838;4.636;2023-07-29T01:00:18;4.78;;;1.30;;
32535;SDS011;18974;50.838;4.636;2023-07-29T01:02:43;3.55;;;1.63;;
32535;SDS011;18974;50.838;4.636;2023-07-29T01:05:11;4.38;;;1.38;;
32535;SDS011;18974;50.838;4.636;2023-07-29T01:07:55;7.93;;;1.48;;
32535;SDS011;18974;50.838;4.636;2023-07-29T01:13:11;8.30;;;1.75;;
32535;SDS011;18974;50.838;4.636;2023-07-29T01:18:26;3.72;;;1.65;;
32535;SDS011;18974;50.838;4.636;2023-07-29T01:20:58;3.65;;;1.60;;
32535;SDS011;18974;50.838;4.636;2023-07-29T01:23:26;1.90;;;1.17;;
32535;SDS011;18974;50.838;4.636;2023-07-29T01:25:55;1.40;;;1.25;;
32535;SDS011;18974;50.838;4.636;2023-07-29T01:28:22;2.45;;;1.60;;
32535;SDS011;18974;50.838;4.636;2023-07-29T01:30:49;4.18;;;1.70;;
32535;SDS011;18974;50.838;4.636;2023-07-29T01:33:30;4.65;;;1.73;;
32535;SDS011;18974;50.838;4.636;2023-07-29T01:36:22;2.20;;;1.40;;
32535;SDS011;18974;50.838;4.636;2023-07-29T01:38:48;2.15;;;1.48;;
32535;SDS011;18974;50.838;4.636;2023-07-29T01:41:15;2.45;;;1.40;;
32535;SDS011;18974;50.838;4.636;2023-07-29T01:43:43;5.80;;;1.83;;
32535;SDS011;18974;50.838;4.636;2023-07-29T01:46:10;6.85;;;1.50;;
32535;SDS011;18974;50.838;4.636;2023-07-29T01:48:39;2.95;;;1.45;;
32535;SDS011;18974;50.838;4.636;2023-07-29T01:51:05;5.15;;;1.65;;
32535;SDS011;18974;50.838;4.636;2023-07-29T01:53:31;5.72;;;1.50;;
32535;SDS011;18974;50.838;4.636;2023-07-29T01:55:57;3.45;;;1.40;;
32535;SDS011;18974;50.838;4.636;2023-07-29T01:58:23;4.30;;;1.60;;
32535;SDS011;18974;50.838;4.636;2023-07-29T02:00:49;5.72;;;1.77;;
32535;SDS011;18974;50.838;4.636;2023-07-29T02:03:15;3.83;;;1.85;;
32535;SDS011;18974;50.838;4.636;2023-07-29T02:05:41;8.38;;;1.65;;
32535;SDS011;18974;50.838;4.636;2023-07-29T02:08:09;5.07;;;1.77;;
32535;SDS011;18974;50.838;4.636;2023-07-29T02:10:35;5.05;;;1.60;;
32535;SDS011;18974;50.838;4.636;2023-07-29T02:13:02;4.47;;;1.52;;
32535;SDS011;18974;50.838;4.636;2023-07-29T02:15:28;4.97;;;2.00;;
32535;SDS011;18974;50.838;4.636;2023-07-29T02:17:54;3.83;;;1.77;;
32535;SDS011;18974;50.838;4.636;2023-07-29T02:20:20;3.22;;;1.73;;
32535;SDS011;18974;50.838;4.636;2023-07-29T02:22:45;4.97;;;1.80;;
32535;SDS011;18974;50.838;4.636;2023-07-29T02:25:13;4.65;;;2.00;;
32535;SDS011;18974;50.838;4.636;2023-07-29T02:27:39;4.40;;;1.52;;
32535;SDS011;18974;50.838;4.636;2023-07-29T02:30:05;2.38;;;2.00;;
32535;SDS011;18974;50.838;4.636;2023-07-29T02:32:31;5.47;;;2.13;;
32535;SDS011;18974;50.838;4.636;2023-07-29T02:34:56;3.58;;;2.10;;
32535;SDS011;18974;50.838;4.636;2023-07-29T02:37:22;3.67;;;1.77;;
32535;SDS011;18974;50.838;4.636;2023-07-29T02:39:48;5.70;;;1.98;;
32535;SDS011;18974;50.838;4.636;2023-07-29T02:42:14;4.00;;;2.38;;
32535;SDS011;18974;50.838;4.636;2023-07-29T02:44:40;4.78;;;2.22;;
32535;SDS011;18974;50.838;4.636;2023-07-29T02:47:05;3.78;;;2.50;;
32535;SDS011;18974;50.838;4.636;2023-07-29T02:49:31;4.05;;;2.20;;
32535;SDS011;18974;50.838;4.636;2023-07-29T02:51:57;5.13;;;2.30;;
32535;SDS011;18974;50.838;4.636;2023-07-29T02:54:22;6.68;;;2.28;;
32535;SDS011;18974;50.838;4.636;2023-07-29T02:56:49;3.50;;;2.17;;
32535;SDS011;18974;50.838;4.636;2023-07-29T02:59:15;3.70;;;2.50;;
32535;SDS011;18974;50.838;4.636;2023-07-29T03:01:41;9.32;;;2.30;;
32535;SDS011;18974;50.838;4.636;2023-07-29T03:04:07;3.13;;;2.10;;
32535;SDS011;18974;50.838;4.636;2023-07-29T03:06:33;3.42;;;2.30;;
32535;SDS011;18974;50.838;4.636;2023-07-29T03:08:58;8.57;;;3.10;;
32535;SDS011;18974;50.838;4.636;2023-07-29T03:11:24;5.07;;;2.17;;
32535;SDS011;18974;50.838;4.636;2023-07-29T03:13:50;6.07;;;2.40;;
32535;SDS011;18974;50.838;4.636;2023-07-29T03:16:17;3.75;;;2.40;;
32535;SDS011;18974;50.838;4.636;2023-07-29T03:18:43;5.70;;;2.10;;
32535;SDS011;18974;50.838;4.636;2023-07-29T03:21:10;3.10;;;1.95;;
32535;SDS011;18974;50.838;4.636;2023-07-29T03:23:36;4.30;;;1.90;;
32535;SDS011;18974;50.838;4.636;2023-07-29T03:26:03;4.22;;;2.17;;
32535;SDS011;18974;50.838;4.636;2023-07-29T03:28:39;4.15;;;1.95;;
32535;SDS011;18974;50.838;4.636;2023-07-29T03:31:08;4.95;;;2.40;;
32535;SDS011;18974;50.838;4.636;2023-07-29T03:33:34;7.20;;;2.25;;
32535;SDS011;18974;50.838;4.636;2023-07-29T03:36:00;4.28;;;2.20;;
32535;SDS011;18974;50.838;4.636;2023-07-29T03:38:26;3.70;;;1.98;;
32535;SDS011;18974;50.838;4.636;2023-07-29T03:40:52;4.28;;;2.20;;
32535;SDS011;18974;50.838;4.636;2023-07-29T03:43:18;6.80;;;2.22;;
32535;SDS011;18974;50.838;4.636;2023-07-29T03:45:44;6.30;;;2.30;;
32535;SDS011;18974;50.838;4.636;2023-07-29T03:48:10;3.60;;;2.22;;
32535;SDS011;18974;50.838;4.636;2023-07-29T03:50:35;7.25;;;2.22;;
32535;SDS011;18974;50.838;4.636;2023-07-29T03:53:02;6.25;;;2.40;;
32535;SDS011;18974;50.838;4.636;2023-07-29T03:55:28;3.47;;;2.58;;
32535;SDS011;18974;50.838;4.636;2023-07-29T03:57:55;5.00;;;2.53;;
32535;SDS011;18974;50.838;4.636;2023-07-29T04:00:25;5.38;;;2.10;;
32535;SDS011;18974;50.838;4.636;2023-07-29T04:02:50;3.95;;;1.77;;
32535;SDS011;18974;50.838;4.636;2023-07-29T04:05:16;4.32;;;1.98;;
32535;SDS011;18974;50.838;4.636;2023-07-29T04:07:42;6.53;;;2.10;;
32535;SDS011;18974;50.838;4.636;2023-07-29T04:10:08;5.65;;;2.30;;
32535;SDS011;18974;50.838;4.636;2023-07-29T04:12:34;5.03;;;2.72;;
32535;SDS011;18974;50.838;4.636;2023-07-29T04:15:00;3.78;;;2.38;;
32535;SDS011;18974;50.838;4.636;2023-07-29T04:17:25;4.80;;;2.20;;
32535;SDS011;18974;50.838;4.636;2023-07-29T04:19:51;5.18;;;2.83;;
32535;SDS011;18974;50.838;4.636;2023-07-29T04:22:17;5.78;;;2.40;;
32535;SDS011;18974;50.838;4.636;2023-07-29T04:24:42;3.55;;;2.33;;
32535;SDS011;18974;50.838;4.636;2023-07-29T04:27:08;6.70;;;2.78;;
32535;SDS011;18974;50.838;4.636;2023-07-29T04:29:34;5.13;;;2.50;;
32535;SDS011;18974;50.838;4.636;2023-07-29T04:32:01;4.75;;;2.75;;
32535;SDS011;18974;50.838;4.636;2023-07-29T04:34:28;6.85;;;2.60;;
32535;SDS011;18974;50.838;4.636;2023-07-29T04:36:53;6.15;;;2.45;;
32535;SDS011;18974;50.838;4.636;2023-07-29T04:39:19;4.70;;;2.30;;
32535;SDS011;18974;50.838;4.636;2023-07-29T04:41:45;3.60;;;2.28;;
32535;SDS011;18974;50.838;4.636;2023-07-29T04:44:11;4.75;;;2.00;;
32535;SDS011;18974;50.838;4.636;2023-07-29T04:46:37;5.20;;;2.13;;
32535;SDS011;18974;50.838;4.636;2023-07-29T04:49:03;4.40;;;1.92;;
32535;SDS011;18974;50.838;4.636;2023-07-29T04:51:29;8.65;;;2.55;;
32535;SDS011;18974;50.838;4.636;2023-07-29T04:53:56;3.58;;;2.03;;
32535;SDS011;18974;50.838;4.636;2023-07-29T04:56:22;8.52;;;1.85;;
32535;SDS011;18974;50.838;4.636;2023-07-29T04:58:48;3.08;;;1.95;;
32535;SDS011;18974;50.838;4.636;2023-07-29T05:01:14;4.30;;;2.20;;
32535;SDS011;18974;50.838;4.636;2023-07-29T05:03:39;2.63;;;1.80;;
32535;SDS011;18974;50.838;4.636;2023-07-29T05:06:05;6.00;;;2.33;;
32535;SDS011;18974;50.838;4.636;2023-07-29T05:08:31;3.15;;;2.00;;
32535;SDS011;18974;50.838;4.636;2023-07-29T05:10:56;3.25;;;2.03;;
32535;SDS011;18974;50.838;4.636;2023-07-29T05:13:22;4.38;;;1.90;;
32535;SDS011;18974;50.838;4.636;2023-07-29T05:15:48;6.60;;;2.20;;
32535;SDS011;18974;50.838;4.636;2023-07-29T05:18:15;4.57;;;2.00;;
32535;SDS011;18974;50.838;4.636;2023-07-29T05:20:41;3.03;;;1.85;;
32535;SDS011;18974;50.838;4.636;2023-07-29T05:23:07;6.93;;;1.90;;
32535;SDS011;18974;50.838;4.636;2023-07-29T05:25:33;3.88;;;2.13;;
32535;SDS011;18974;50.838;4.636;2023-07-29T05:28:01;6.22;;;2.33;;
32535;SDS011;18974;50.838;4.636;2023-07-29T05:30:28;4.38;;;2.10;;
32535;SDS011;18974;50.838;4.636;2023-07-29T05:32:59;3.10;;;1.45;;
32535;SDS011;18974;50.838;4.636;2023-07-29T05:35:28;5.10;;;1.90;;
32535;SDS011;18974;50.838;4.636;2023-07-29T05:37:54;4.78;;;2.40;;
32535;SDS011;18974;50.838;4.636;2023-07-29T05:40:19;8.68;;;2.13;;
32535;SDS011;18974;50.838;4.636;2023-07-29T05:42:45;6.32;;;2.35;;
32535;SDS011;18974;50.838;4.636;2023-07-29T05:45:11;4.63;;;1.63;;
32535;SDS011;18974;50.838;4.636;2023-07-29T05:47:37;7.05;;;1.73;;
32535;SDS011;18974;50.838;4.636;2023-07-29T05:50:03;6.15;;;1.90;;
32535;SDS011;18974;50.838;4.636;2023-07-29T05:52:32;5.03;;;2.00;;
32535;SDS011;18974;50.838;4.636;2023-07-29T05:54:58;3.10;;;1.40;;
32535;SDS011;18974;50.838;4.636;2023-07-29T05:57:24;6.60;;;1.80;;
32535;SDS011;18974;50.838;4.636;2023-07-29T05:59:49;5.18;;;1.77;;
32535;SDS011;18974;50.838;4.636;2023-07-29T06:02:15;4.38;;;1.80;;
32535;SDS011;18974;50.838;4.636;2023-07-29T06:04:40;7.45;;;1.55;;
32535;SDS011;18974;50.838;4.636;2023-07-29T06:07:06;4.28;;;1.60;;
32535;SDS011;18974;50.838;4.636;2023-07-29T06:09:32;4.13;;;1.98;;
32535;SDS011;18974;50.838;4.636;2023-07-29T06:11:58;4.22;;;1.58;;
32535;SDS011;18974;50.838;4.636;2023-07-29T06:14:23;2.97;;;1.60;;
32535;SDS011;18974;50.838;4.636;2023-07-29T06:16:49;6.28;;;1.40;;
32535;SDS011;18974;50.838;4.636;2023-07-29T06:19:15;4.45;;;1.30;;
32535;SDS011;18974;50.838;4.636;2023-07-29T06:21:40;2.25;;;1.58;;
32535;SDS011;18974;50.838;4.636;2023-07-29T06:24:06;1.85;;;1.48;;
32535;SDS011;18974;50.838;4.636;2023-07-29T06:26:32;1.90;;;1.25;;
32535;SDS011;18974;50.838;4.636;2023-07-29T06:28:58;1.42;;;1.30;;
32535;SDS011;18974;50.838;4.636;2023-07-29T06:31:23;6.30;;;1.58;;
32535;SDS011;18974;50.838;4.636;2023-07-29T06:33:49;5.43;;;1.20;;
32535;SDS011;18974;50.838;4.636;2023-07-29T06:36:15;3.20;;;1.27;;
32535;SDS011;18974;50.838;4.636;2023-07-29T06:38:40;3.97;;;1.42;;
32535;SDS011;18974;50.838;4.636;2023-07-29T06:41:06;12.43;;;1.60;;
32535;SDS011;18974;50.838;4.636;2023-07-29T06:43:32;3.10;;;1.05;;
32535;SDS011;18974;50.838;4.636;2023-07-29T06:45:58;3.85;;;1.30;;
32535;SDS011;18974;50.838;4.636;2023-07-29T06:48:24;2.58;;;1.35;;
32535;SDS011;18974;50.838;4.636;2023-07-29T06:50:49;2.03;;;1.13;;
32535;SDS011;18974;50.838;4.636;2023-07-29T06:53:20;1.45;;;1.13;;
32535;SDS011;18974;50.838;4.636;2023-07-29T06:55:46;2.22;;;1.13;;
32535;SDS011;18974;50.838;4.636;2023-07-29T06:58:12;5.28;;;1.10;;
32535;SDS011;18974;50.838;4.636;2023-07-29T07:00:37;3.58;;;1.20;;
32535;SDS011;18974;50.838;4.636;2023-07-29T07:03:03;1.35;;;1.10;;
32535;SDS011;18974;50.838;4.636;2023-07-29T07:05:29;3.25;;;1.10;;
32535;SDS011;18974;50.838;4.636;2023-07-29T07:07:54;2.47;;;1.05;;
32535;SDS011;18974;50.838;4.636;2023-07-29T07:10:20;2.30;;;1.05;;
32535;SDS011;18974;50.838;4.636;2023-07-29T07:12:45;1.90;;;1.00;;
32535;SDS011;18974;50.838;4.636;2023-07-29T07:15:11;2.47;;;1.13;;
32535;SDS011;18974;50.838;4.636;2023-07-29T07:17:37;3.38;;;1.38;;
32535;SDS011;18974;50.838;4.636;2023-07-29T07:20:02;1.25;;;1.00;;
32535;SDS011;18974;50.838;4.636;2023-07-29T07:22:28;2.30;;;1.05;;
32535;SDS011;18974;50.838;4.636;2023-07-29T07:24:54;2.08;;;1.25;;
32535;SDS011;18974;50.838;4.636;2023-07-29T07:27:20;3.38;;;0.88;;
32535;SDS011;18974;50.838;4.636;2023-07-29T07:29:45;2.88;;;0.88;;
32535;SDS011;18974;50.838;4.636;2023-07-29T07:32:11;2.28;;;1.30;;
32535;SDS011;18974;50.838;4.636;2023-07-29T07:34:37;1.85;;;1.05;;
32535;SDS011;18974;50.838;4.636;2023-07-29T07:37:02;3.72;;;1.40;;
32535;SDS011;18974;50.838;4.636;2023-07-29T07:39:29;3.30;;;1.00;;
32535;SDS011;18974;50.838;4.636;2023-07-29T07:41:56;5.95;;;0.98;;
32535;SDS011;18974;50.838;4.636;2023-07-29T07:44:21;2.10;;;1.40;;
32535;SDS011;18974;50.838;4.636;2023-07-29T07:46:47;1.90;;;1.10;;
32535;SDS011;18974;50.838;4.636;2023-07-29T07:49:13;3.60;;;1.10;;
32535;SDS011;18974;50.838;4.636;2023-07-29T07:51:39;1.92;;;1.40;;
32535;SDS011;18974;50.838;4.636;2023-07-29T07:54:05;5.38;;;1.50;;
32535;SDS011;18974;50.838;4.636;2023-07-29T07:56:30;1.45;;;1.15;;
32535;SDS011;18974;50.838;4.636;2023-07-29T07:58:56;2.72;;;1.10;;
32535;SDS011;18974;50.838;4.636;2023-07-29T08:01:21;1.88;;;1.23;;
32535;SDS011;18974;50.838;4.636;2023-07-29T08:03:47;3.05;;;1.40;;
32535;SDS011;18974;50.838;4.636;2023-07-29T08:06:13;1.60;;;1.20;;
32535;SDS011;18974;50.838;4.636;2023-07-29T08:08:38;2.55;;;1.20;;
32535;SDS011;18974;50.838;4.636;2023-07-29T08:11:04;3.63;;;1.20;;
32535;SDS011;18974;50.838;4.636;2023-07-29T08:13:30;3.40;;;1.27;;
32535;SDS011;18974;50.838;4.636;2023-07-29T08:15:56;4.30;;;1.20;;
32535;SDS011;18974;50.838;4.636;2023-07-29T08:18:21;3.65;;;1.27;;
32535;SDS011;18974;50.838;4.636;2023-07-29T08:20:54;2.38;;;1.20;;
32535;SDS011;18974;50.838;4.636;2023-07-29T08:23:20;1.58;;;1.00;;
32535;SDS011;18974;50.838;4.636;2023-07-29T08:25:51;2.88;;;1.10;;
32535;SDS011;18974;50.838;4.636;2023-07-29T08:28:21;3.10;;;1.10;;
32535;SDS011;18974;50.838;4.636;2023-07-29T08:30:47;1.70;;;1.00;;
32535;SDS011;18974;50.838;4.636;2023-07-29T08:33:13;2.72;;;1.05;;
32535;SDS011;18974;50.838;4.636;2023-07-29T08:35:39;2.42;;;1.40;;
32535;SDS011;18974;50.838;4.636;2023-07-29T08:38:05;1.73;;;1.00;;
32535;SDS011;18974;50.838;4.636;2023-07-29T08:40:30;1.77;;;1.00;;
32535;SDS011;18974;50.838;4.636;2023-07-29T08:42:59;2.80;;;1.45;;
32535;SDS011;18974;50.838;4.636;2023-07-29T08:45:31;1.92;;;1.25;;
32535;SDS011;18974;50.838;4.636;2023-07-29T08:47:59;1.80;;;1.00;;
32535;SDS011;18974;50.838;4.636;2023-07-29T08:50:31;4.68;;;1.35;;
32535;SDS011;18974;50.838;4.636;2023-07-29T08:52:58;2.20;;;1.25;;
32535;SDS011;18974;50.838;4.636;2023-07-29T08:55:26;2.42;;;1.05;;
32535;SDS011;18974;50.838;4.636;2023-07-29T08:57:52;1.83;;;1.40;;
32535;SDS011;18974;50.838;4.636;2023-07-29T09:00:18;5.05;;;1.40;;
32535;SDS011;18974;50.838;4.636;2023-07-29T09:02:45;3.00;;;1.13;;
32535;SDS011;18974;50.838;4.636;2023-07-29T09:05:11;1.25;;;1.00;;
32535;SDS011;18974;50.838;4.636;2023-07-29T09:07:36;2.72;;;1.17;;
32535;SDS011;18974;50.838;4.636;2023-07-29T09:10:03;6.63;;;1.48;;
32535;SDS011;18974;50.838;4.636;2023-07-29T09:12:29;4.95;;;1.30;;
32535;SDS011;18974;50.838;4.636;2023-07-29T09:14:55;2.05;;;1.35;;
32535;SDS011;18974;50.838;4.636;2023-07-29T09:17:20;1.23;;;1.13;;
32535;SDS011;18974;50.838;4.636;2023-07-29T09:19:48;1.50;;;1.15;;
32535;SDS011;18974;50.838;4.636;2023-07-29T09:22:20;1.38;;;1.13;;
32535;SDS011;18974;50.838;4.636;2023-07-29T09:24:46;2.97;;;1.30;;
32535;SDS011;18974;50.838;4.636;2023-07-29T09:27:23;5.60;;;1.30;;
32535;SDS011;18974;50.838;4.636;2023-07-29T09:29:52;3.90;;;1.40;;
32535;SDS011;18974;50.838;4.636;2023-07-29T09:32:19;2.40;;;1.45;;
32535;SDS011;18974;50.838;4.636;2023-07-29T09:34:46;3.22;;;1.38;;
32535;SDS011;18974;50.838;4.636;2023-07-29T09:37:16;2.80;;;1.10;;
32535;SDS011;18974;50.838;4.636;2023-07-29T09:39:46;2.17;;;1.40;;
32535;SDS011;18974;50.838;4.636;2023-07-29T09:42:22;1.33;;;1.23;;
32535;SDS011;18974;50.838;4.636;2023-07-29T09:44:49;2.63;;;1.52;;
32535;SDS011;18974;50.838;4.636;2023-07-29T09:47:18;2.25;;;1.67;;
32535;SDS011;18974;50.838;4.636;2023-07-29T09:49:45;2.70;;;2.03;;
32535;SDS011;18974;50.838;4.636;2023-07-29T09:52:11;3.05;;;1.70;;
32535;SDS011;18974;50.838;4.636;2023-07-29T09:54:39;3.60;;;2.08;;
32535;SDS011;18974;50.838;4.636;2023-07-29T09:57:06;3.47;;;1.73;;
32535;SDS011;18974;50.838;4.636;2023-07-29T09:59:35;2.58;;;2.20;;
32535;SDS011;18974;50.838;4.636;2023-07-29T10:02:01;3.53;;;1.73;;
32535;SDS011;18974;50.838;4.636;2023-07-29T10:04:27;1.40;;;1.30;;
32535;SDS011;18974;50.838;4.636;2023-07-29T10:06:54;2.63;;;1.33;;
32535;SDS011;18974;50.838;4.636;2023-07-29T10:09:20;1.23;;;1.13;;
32535;SDS011;18974;50.838;4.636;2023-07-29T10:11:46;3.85;;;1.52;;
32535;SDS011;18974;50.838;4.636;2023-07-29T10:14:14;1.83;;;1.30;;
32535;SDS011;18974;50.838;4.636;2023-07-29T10:16:40;1.67;;;1.30;;
32535;SDS011;18974;50.838;4.636;2023-07-29T10:19:07;2.65;;;1.38;;
32535;SDS011;18974;50.838;4.636;2023-07-29T10:21:35;1.92;;;1.23;;
32535;SDS011;18974;50.838;4.636;2023-07-29T10:24:04;3.05;;;1.35;;
32535;SDS011;18974;50.838;4.636;2023-07-29T10:26:34;3.30;;;1.60;;
32535;SDS011;18974;50.838;4.636;2023-07-29T10:29:02;3.10;;;1.70;;
32535;SDS011;18974;50.838;4.636;2023-07-29T10:31:33;2.85;;;1.60;;
32535;SDS011;18974;50.838;4.636;2023-07-29T10:34:00;3.40;;;1.50;;
32535;SDS011;18974;50.838;4.636;2023-07-29T10:36:27;4.28;;;2.10;;
32535;SDS011;18974;50.838;4.636;2023-07-29T10:38:53;6.88;;;1.63;;
32535;SDS011;18974;50.838;4.636;2023-07-29T10:41:19;9.38;;;2.50;;
32535;SDS011;18974;50.838;4.636;2023-07-29T10:43:45;9.73;;;2.85;;
32535;SDS011;18974;50.838;4.636;2023-07-29T10:46:23;6.93;;;2.63;;
32535;SDS011;18974;50.838;4.636;2023-07-29T10:48:52;4.78;;;2.22;;
32535;SDS011;18974;50.838;4.636;2023-07-29T10:54:02;6.13;;;2.80;;
32535;SDS011;18974;50.838;4.636;2023-07-29T10:56:36;5.95;;;2.50;;
32535;SDS011;18974;50.838;4.636;2023-07-29T11:01:37;3.20;;;2.22;;
32535;SDS011;18974;50.838;4.636;2023-07-29T11:07:18;3.88;;;2.10;;
32535;SDS011;18974;50.838;4.636;2023-07-29T11:15:11;2.30;;;2.10;;
32535;SDS011;18974;50.838;4.636;2023-07-29T11:17:44;4.00;;;2.03;;
32535;SDS011;18974;50.838;4.636;2023-07-29T11:20:10;8.63;;;2.40;;
32535;SDS011;18974;50.838;4.636;2023-07-29T11:22:37;6.18;;;2.28;;
32535;SDS011;18974;50.838;4.636;2023-07-29T11:25:04;2.72;;;1.73;;
32535;SDS011;18974;50.838;4.636;2023-07-29T11:27:32;4.95;;;2.40;;
32535;SDS011;18974;50.838;4.636;2023-07-29T11:29:58;3.22;;;2.25;;
32535;SDS011;18974;50.838;4.636;2023-07-29T11:32:25;3.28;;;2.10;;
32535;SDS011;18974;50.838;4.636;2023-07-29T11:34:51;3.53;;;2.42;;
32535;SDS011;18974;50.838;4.636;2023-07-29T11:37:17;9.00;;;2.42;;
32535;SDS011;18974;50.838;4.636;2023-07-29T11:39:43;4.57;;;2.30;;
32535;SDS011;18974;50.838;4.636;2023-07-29T11:42:13;5.00;;;2.50;;
32535;SDS011;18974;50.838;4.636;2023-07-29T11:44:40;3.63;;;2.22;;
32535;SDS011;18974;50.838;4.636;2023-07-29T11:47:08;5.55;;;2.90;;
32535;SDS011;18974;50.838;4.636;2023-07-29T11:49:35;5.72;;;2.30;;
32535;SDS011;18974;50.838;4.636;2023-07-29T11:52:03;2.55;;;2.15;;
32535;SDS011;18974;50.838;4.636;2023-07-29T11:54:30;3.20;;;2.28;;
32535;SDS011;18974;50.838;4.636;2023-07-29T11:56:56;5.75;;;2.20;;
32535;SDS011;18974;50.838;4.636;2023-07-29T11:59:23;3.03;;;2.28;;
32535;SDS011;18974;50.838;4.636;2023-07-29T12:01:48;3.60;;;2.03;;
32535;SDS011;18974;50.838;4.636;2023-07-29T12:04:14;4.65;;;2.20;;
32535;SDS011;18974;50.838;4.636;2023-07-29T12:06:41;3.25;;;1.95;;
32535;SDS011;18974;50.838;4.636;2023-07-29T12:09:07;2.42;;;1.63;;
32535;SDS011;18974;50.838;4.636;2023-07-29T12:11:34;2.03;;;1.83;;
32535;SDS011;18974;50.838;4.636;2023-07-29T12:14:00;2.97;;;2.08;;
32535;SDS011;18974;50.838;4.636;2023-07-29T12:16:25;9.20;;;2.00;;
32535;SDS011;18974;50.838;4.636;2023-07-29T12:18:51;1.30;;;1.20;;
32535;SDS011;18974;50.838;4.636;2023-07-29T12:21:20;3.20;;;1.63;;
32535;SDS011;18974;50.838;4.636;2023-07-29T12:23:46;5.05;;;2.03;;
32535;SDS011;18974;50.838;4.636;2023-07-29T12:26:12;2.40;;;1.75;;
32535;SDS011;18974;50.838;4.636;2023-07-29T12:28:37;2.88;;;1.60;;
32535;SDS011;18974;50.838;4.636;2023-07-29T12:31:06;2.88;;;1.50;;
32535;SDS011;18974;50.838;4.636;2023-07-29T12:33:33;3.03;;;1.58;;
32535;SDS011;18974;50.838;4.636;2023-07-29T12:36:01;4.13;;;2.00;;
32535;SDS011;18974;50.838;4.636;2023-07-29T12:38:28;2.03;;;1.83;;
32535;SDS011;18974;50.838;4.636;2023-07-29T12:40:54;2.25;;;1.90;;
32535;SDS011;18974;50.838;4.636;2023-07-29T12:43:20;3.10;;;1.65;;
32535;SDS011;18974;50.838;4.636;2023-07-29T12:45:49;5.75;;;1.98;;
32535;SDS011;18974;50.838;4.636;2023-07-29T12:48:14;3.75;;;2.25;;
32535;SDS011;18974;50.838;4.636;2023-07-29T12:50:40;4.68;;;2.30;;
32535;SDS011;18974;50.838;4.636;2023-07-29T12:53:06;5.32;;;2.45;;
32535;SDS011;18974;50.838;4.636;2023-07-29T12:55:33;3.70;;;2.50;;
32535;SDS011;18974;50.838;4.636;2023-07-29T12:57:59;3.70;;;2.58;;
32535;SDS011;18974;50.838;4.636;2023-07-29T13:00:25;4.32;;;2.47;;
32535;SDS011;18974;50.838;4.636;2023-07-29T13:02:51;4.53;;;2.92;;
32535;SDS011;18974;50.838;4.636;2023-07-29T13:05:17;3.70;;;3.15;;
32535;SDS011;18974;50.838;4.636;2023-07-29T13:07:43;5.00;;;2.38;;
32535;SDS011;18974;50.838;4.636;2023-07-29T13:10:11;3.95;;;2.30;;
32535;SDS011;18974;50.838;4.636;2023-07-29T13:12:37;2.67;;;1.80;;
32535;SDS011;18974;50.838;4.636;2023-07-29T13:15:04;2.40;;;1.70;;
32535;SDS011;18974;50.838;4.636;2023-07-29T13:17:30;3.17;;;2.00;;
32535;SDS011;18974;50.838;4.636;2023-07-29T13:19:56;2.72;;;1.70;;
32535;SDS011;18974;50.838;4.636;2023-07-29T13:22:21;1.45;;;1.35;;
32535;SDS011;18974;50.838;4.636;2023-07-29T13:24:47;1.50;;;1.40;;
32535;SDS011;18974;50.838;4.636;2023-07-29T13:27:13;2.15;;;1.13;;
32535;SDS011;18974;50.838;4.636;2023-07-29T13:29:39;2.20;;;1.60;;
32535;SDS011;18974;50.838;4.636;2023-07-29T13:32:05;1.70;;;1.40;;
32535;SDS011;18974;50.838;4.636;2023-07-29T13:34:31;1.65;;;1.38;;
32535;SDS011;18974;50.838;4.636;2023-07-29T13:36:59;2.85;;;1.40;;
32535;SDS011;18974;50.838;4.636;2023-07-29T13:39:24;3.25;;;1.70;;
32535;SDS011;18974;50.838;4.636;2023-07-29T13:41:50;4.65;;;1.65;;
32535;SDS011;18974;50.838;4.636;2023-07-29T13:44:15;2.17;;;1.52;;
32535;SDS011;18974;50.838;4.636;2023-07-29T13:46:41;1.73;;;1.60;;
32535;SDS011;18974;50.838;4.636;2023-07-29T13:49:07;3.00;;;1.50;;
32535;SDS011;18974;50.838;4.636;2023-07-29T13:51:32;1.83;;;1.58;;
32535;SDS011;18974;50.838;4.636;2023-07-29T13:53:58;2.45;;;1.70;;
32535;SDS011;18974;50.838;4.636;2023-07-29T13:56:24;6.72;;;2.03;;
32535;SDS011;18974;50.838;4.636;2023-07-29T13:58:49;2.00;;;1.80;;
32535;SDS011;18974;50.838;4.636;2023-07-29T14:01:15;2.25;;;1.73;;
32535;SDS011;18974;50.838;4.636;2023-07-29T14:03:41;4.25;;;1.73;;
32535;SDS011;18974;50.838;4.636;2023-07-29T14:06:06;3.80;;;1.90;;
32535;SDS011;18974;50.838;4.636;2023-07-29T14:08:32;3.53;;;1.90;;
32535;SDS011;18974;50.838;4.636;2023-07-29T14:10:57;1.75;;;1.65;;
32535;SDS011;18974;50.838;4.636;2023-07-29T14:13:23;2.60;;;1.60;;
32535;SDS011;18974;50.838;4.636;2023-07-29T14:15:49;1.45;;;1.35;;
32535;SDS011;18974;50.838;4.636;2023-07-29T14:18:14;3.60;;;1.60;;
32535;SDS011;18974;50.838;4.636;2023-07-29T14:20:40;2.92;;;1.08;;
32535;SDS011;18974;50.838;4.636;2023-07-29T14:23:06;1.70;;;1.15;;
32535;SDS011;18974;50.838;4.636;2023-07-29T14:25:31;3.33;;;1.17;;
32535;SDS011;18974;50.838;4.636;2023-07-29T14:27:57;3.30;;;1.23;;
32535;SDS011;18974;50.838;4.636;2023-07-29T14:30:23;1.40;;;1.30;;
32535;SDS011;18974;50.838;4.636;2023-07-29T14:32:49;1.20;;;1.10;;
32535;SDS011;18974;50.838;4.636;2023-07-29T14:35:14;0.95;;;0.88;;
32535;SDS011;18974;50.838;4.636;2023-07-29T14:37:40;2.45;;;0.90;;
32535;SDS011;18974;50.838;4.636;2023-07-29T14:40:06;1.17;;;1.08;;
32535;SDS011;18974;50.838;4.636;2023-07-29T14:42:32;1.30;;;1.20;;
32535;SDS011;18974;50.838;4.636;2023-07-29T14:44:58;2.47;;;1.08;;
32535;SDS011;18974;50.838;4.636;2023-07-29T14:47:23;1.27;;;0.90;;
32535;SDS011;18974;50.838;4.636;2023-07-29T14:49:49;1.10;;;1.02;;
32535;SDS011;18974;50.838;4.636;2023-07-29T14:52:15;1.95;;;1.00;;
32535;SDS011;18974;50.838;4.636;2023-07-29T14:54:40;2.47;;;1.13;;
32535;SDS011;18974;50.838;4.636;2023-07-29T14:57:06;0.88;;;0.88;;
32535;SDS011;18974;50.838;4.636;2023-07-29T14:59:32;1.20;;;0.95;;
32535;SDS011;18974;50.838;4.636;2023-07-29T15:01:58;3.15;;;0.90;;
32535;SDS011;18974;50.838;4.636;2023-07-29T15:04:24;2.25;;;1.00;;